createdAt,value
2018-04-02T00:00:27.408Z,87.97
2018-04-02T00:01:27.371Z,88.73
2018-04-02T00:02:27.391Z,88.73
2018-04-02T00:03:27.427Z,88.73
2018-04-02T00:04:27.438Z,88.73
2018-04-02T00:05:27.457Z,88.82
2018-04-02T00:06:27.480Z,88.68
2018-04-02T00:07:27.493Z,88.30
2018-04-02T00:08:27.528Z,88.73
2018-04-02T00:09:27.538Z,88.63
2018-04-02T00:10:27.566Z,88.49
2018-04-02T00:11:27.586Z,88.59
2018-04-02T00:12:27.596Z,89.53
2018-04-02T00:13:27.630Z,89.34
2018-04-02T00:14:27.649Z,88.96
2018-04-02T00:15:27.708Z,88.96
2018-04-02T00:16:27.715Z,89.25
2018-04-02T00:17:27.698Z,89.44
2018-04-02T00:18:27.724Z,89.15
2018-04-02T00:19:27.765Z,89.44
2018-04-02T00:20:27.772Z,89.58
2018-04-02T00:21:27.785Z,88.49
2018-04-02T00:22:27.810Z,89.34
2018-04-02T00:23:27.832Z,89.25
2018-04-02T00:24:27.846Z,88.87
2018-04-02T00:25:27.870Z,88.68
2018-04-02T00:26:27.887Z,88.49
2018-04-02T00:27:27.908Z,89.44
2018-04-02T00:28:27.931Z,89.06
2018-04-02T00:29:27.947Z,89.44
2018-04-02T00:30:27.970Z,89.25
2018-04-02T00:31:27.981Z,89.34
2018-04-02T00:32:28.009Z,89.44
2018-04-02T00:33:28.061Z,90.01
2018-04-02T00:34:28.049Z,90.01
2018-04-02T00:35:28.061Z,89.82
2018-04-02T00:36:28.092Z,90.29
2018-04-02T00:37:28.106Z,89.63
2018-04-02T00:38:28.134Z,90.20
2018-04-02T00:39:28.145Z,89.91
2018-04-02T00:40:28.171Z,90.67
2018-04-02T00:41:28.189Z,90.01
2018-04-02T00:42:28.209Z,90.01
2018-04-02T00:43:28.245Z,90.29
2018-04-02T00:44:28.249Z,89.82
2018-04-02T00:45:28.301Z,89.53
2018-04-02T00:46:28.294Z,89.44
2018-04-02T00:47:28.312Z,89.25
2018-04-02T00:48:28.330Z,89.34
2018-04-02T00:49:28.356Z,89.53
2018-04-02T00:50:28.376Z,89.25
2018-04-02T00:51:28.403Z,89.34
2018-04-02T00:52:28.423Z,89.25
2018-04-02T00:53:28.430Z,88.59
2018-04-02T00:54:28.457Z,89.15
2018-04-02T00:55:28.472Z,89.15
2018-04-02T00:56:28.575Z,89.25
2018-04-02T00:57:28.518Z,88.68
2018-04-02T00:58:28.562Z,88.68
2018-04-02T00:59:28.562Z,88.30
2018-04-02T01:00:28.581Z,88.68
2018-04-02T01:01:28.606Z,88.87
2018-04-02T01:02:28.615Z,88.68
2018-04-02T01:03:28.636Z,88.78
2018-04-02T01:04:28.670Z,88.59
2018-04-02T01:05:28.677Z,88.68
2018-04-02T01:06:28.694Z,88.96
2018-04-02T01:07:28.725Z,88.40
2018-04-02T01:08:28.743Z,88.49
2018-04-02T01:09:28.774Z,88.21
2018-04-02T01:10:28.774Z,88.68
2018-04-02T01:11:28.798Z,88.59
2018-04-02T01:12:28.818Z,88.68
2018-04-02T01:13:28.844Z,88.68
2018-04-02T01:14:28.858Z,88.87
2018-04-02T01:15:28.880Z,88.68
2018-04-02T01:16:28.899Z,88.87
2018-04-02T01:17:28.918Z,88.68
2018-04-02T01:18:28.935Z,88.68
2018-04-02T01:19:28.955Z,88.87
2018-04-02T01:20:28.983Z,88.11
2018-04-02T01:21:28.995Z,88.68
2018-04-02T01:22:29.017Z,88.30
2018-04-02T01:23:29.046Z,88.11
2018-04-02T01:24:29.062Z,88.21
2018-04-02T01:25:29.081Z,88.59
2018-04-02T01:26:29.104Z,88.59
2018-04-02T01:27:29.118Z,88.49
2018-04-02T01:28:29.145Z,88.59
2018-04-02T01:29:29.166Z,88.40
2018-04-02T01:30:29.182Z,88.68
2018-04-02T01:31:29.204Z,88.11
2018-04-02T01:32:29.220Z,88.40
2018-04-02T01:33:29.241Z,88.30
2018-04-02T01:34:29.257Z,88.21
2018-04-02T01:35:29.275Z,88.59
2018-04-02T01:36:29.310Z,87.54
2018-04-02T01:37:29.319Z,87.73
2018-04-02T01:38:29.337Z,88.49
2018-04-02T01:39:29.360Z,88.30
2018-04-02T01:40:29.383Z,88.11
2018-04-02T01:41:29.398Z,88.40
2018-04-02T01:42:29.417Z,88.59
2018-04-02T01:43:29.442Z,88.21
2018-04-02T01:44:29.466Z,88.11
2018-04-02T01:45:29.483Z,88.21
2018-04-02T01:46:29.497Z,88.21
2018-04-02T01:47:29.527Z,88.30
2018-04-02T01:48:29.542Z,87.64
2018-04-02T01:49:29.566Z,87.54
2018-04-02T01:50:29.587Z,88.11
2018-04-02T01:51:29.603Z,87.45
2018-04-02T01:52:29.627Z,88.49
2018-04-02T01:53:29.640Z,88.21
2018-04-02T01:54:29.662Z,88.21
2018-04-02T01:55:29.681Z,88.11
2018-04-02T01:56:29.701Z,88.49
2018-04-02T01:57:29.722Z,88.11
2018-04-02T01:58:29.735Z,88.49
2018-04-02T01:59:29.786Z,88.68
2018-04-02T02:00:29.785Z,88.11
2018-04-02T02:01:29.798Z,88.35
2018-04-02T02:02:29.821Z,88.26
2018-04-02T02:03:29.844Z,88.59
2018-04-02T02:04:29.867Z,88.54
2018-04-02T02:05:29.881Z,88.82
2018-04-02T02:06:29.901Z,88.64
2018-04-02T02:07:29.921Z,88.64
2018-04-02T02:08:29.945Z,88.73
2018-04-02T02:09:29.965Z,88.26
2018-04-02T02:10:29.982Z,88.64
2018-04-02T02:11:29.997Z,88.64
2018-04-02T02:12:30.026Z,88.82
2018-04-02T02:13:30.037Z,88.64
2018-04-02T02:14:30.061Z,88.45
2018-04-02T02:15:30.086Z,88.45
2018-04-02T02:16:30.108Z,89.01
2018-04-02T02:17:30.116Z,88.73
2018-04-02T02:18:30.135Z,88.73
2018-04-02T02:19:30.163Z,88.73
2018-04-02T02:20:30.175Z,88.45
2018-04-02T02:21:30.199Z,88.54
2018-04-02T02:22:30.215Z,88.82
2018-04-02T02:23:30.247Z,88.73
2018-04-02T02:24:30.264Z,88.73
2018-04-02T02:25:30.909Z,88.54
2018-04-02T02:26:30.293Z,88.64
2018-04-02T02:27:30.321Z,88.64
2018-04-02T02:28:30.331Z,88.73
2018-04-02T02:29:30.363Z,89.11
2018-04-02T02:30:30.382Z,88.54
2018-04-02T02:31:30.392Z,88.64
2018-04-02T02:32:30.419Z,88.73
2018-04-02T02:33:30.435Z,88.92
2018-04-02T02:34:30.451Z,88.64
2018-04-02T02:35:30.479Z,88.82
2018-04-02T02:36:30.510Z,88.82
2018-04-02T02:37:30.517Z,89.39
2018-04-02T02:38:30.542Z,88.64
2018-04-02T02:39:30.555Z,88.82
2018-04-02T02:40:30.586Z,88.64
2018-04-02T02:41:30.596Z,89.01
2018-04-02T02:42:30.611Z,88.64
2018-04-02T02:43:30.642Z,88.64
2018-04-02T02:44:30.653Z,88.54
2018-04-02T02:45:30.680Z,88.54
2018-04-02T02:46:30.695Z,88.64
2018-04-02T02:47:30.710Z,88.73
2018-04-02T02:48:30.739Z,88.82
2018-04-02T02:49:30.755Z,88.82
2018-04-02T02:50:30.768Z,88.54
2018-04-02T02:51:30.787Z,88.64
2018-04-02T02:52:30.809Z,88.45
2018-04-02T02:53:30.846Z,88.82
2018-04-02T02:54:30.849Z,88.45
2018-04-02T02:55:30.867Z,88.54
2018-04-02T02:56:30.887Z,89.11
2018-04-02T02:57:30.909Z,88.64
2018-04-02T02:58:30.929Z,88.64
2018-04-02T02:59:30.948Z,88.54
2018-04-02T03:00:30.965Z,88.92
2018-04-02T03:01:30.991Z,88.73
2018-04-02T03:02:31.004Z,88.82
2018-04-02T03:03:31.033Z,88.64
2018-04-02T03:04:31.045Z,88.45
2018-04-02T03:05:31.070Z,89.11
2018-04-02T03:06:31.083Z,88.82
2018-04-02T03:07:31.107Z,88.17
2018-04-02T03:08:31.128Z,89.11
2018-04-02T03:09:31.145Z,88.26
2018-04-02T03:10:31.167Z,88.64
2018-04-02T03:11:31.184Z,88.64
2018-04-02T03:12:31.203Z,89.39
2018-04-02T03:13:31.224Z,89.11
2018-04-02T03:14:31.241Z,89.49
2018-04-02T03:15:31.255Z,89.20
2018-04-02T03:16:31.280Z,89.58
2018-04-02T03:17:31.297Z,89.58
2018-04-02T03:18:31.325Z,89.30
2018-04-02T03:19:31.343Z,89.11
2018-04-02T03:20:31.357Z,89.30
2018-04-02T03:21:31.376Z,89.20
2018-04-02T03:22:31.396Z,89.11
2018-04-02T03:23:31.425Z,89.01
2018-04-02T03:24:31.444Z,89.11
2018-04-02T03:25:31.462Z,89.20
2018-04-02T03:26:31.494Z,89.20
2018-04-02T03:27:31.495Z,89.20
2018-04-02T03:28:31.522Z,89.39
2018-04-02T03:29:31.540Z,89.58
2018-04-02T03:30:31.559Z,89.11
2018-04-02T03:31:31.585Z,89.11
2018-04-02T03:32:31.589Z,89.30
2018-04-02T03:33:31.613Z,89.30
2018-04-02T03:34:31.631Z,89.20
2018-04-02T03:35:31.658Z,88.92
2018-04-02T03:36:31.669Z,89.20
2018-04-02T03:37:31.698Z,89.30
2018-04-02T03:38:31.715Z,89.01
2018-04-02T03:39:31.734Z,89.44
2018-04-02T03:40:31.745Z,89.44
2018-04-02T03:41:31.770Z,89.96
2018-04-02T03:42:31.785Z,89.68
2018-04-02T03:43:31.807Z,89.58
2018-04-02T03:44:31.827Z,89.49
2018-04-02T03:45:31.849Z,89.77
2018-04-02T03:46:31.869Z,89.77
2018-04-02T03:47:31.885Z,89.58
2018-04-02T03:48:31.902Z,89.63
2018-04-02T03:49:31.931Z,89.92
2018-04-02T03:50:31.946Z,90.11
2018-04-02T03:51:31.968Z,89.77
2018-04-02T03:52:31.990Z,89.68
2018-04-02T03:53:32.001Z,89.44
2018-04-02T03:54:32.042Z,90.25
2018-04-02T03:55:32.047Z,89.63
2018-04-02T03:56:32.057Z,90.20
2018-04-02T03:57:32.090Z,89.44
2018-04-02T03:58:32.102Z,89.54
2018-04-02T03:59:32.133Z,90.48
2018-04-02T04:00:32.137Z,90.30
2018-04-02T04:01:32.157Z,90.11
2018-04-02T04:02:32.181Z,90.01
2018-04-02T04:03:32.201Z,89.92
2018-04-02T04:04:32.218Z,90.58
2018-04-02T04:05:32.331Z,90.39
2018-04-02T04:06:32.254Z,90.53
2018-04-02T04:07:32.277Z,90.30
2018-04-02T04:08:32.297Z,90.30
2018-04-02T04:09:32.313Z,90.01
2018-04-02T04:10:32.338Z,90.58
2018-04-02T04:11:32.348Z,90.39
2018-04-02T04:12:32.368Z,90.58
2018-04-02T04:13:32.390Z,90.48
2018-04-02T04:14:32.416Z,90.86
2018-04-02T04:15:32.434Z,90.86
2018-04-02T04:16:32.469Z,90.48
2018-04-02T04:17:32.468Z,90.96
2018-04-02T04:18:32.632Z,90.58
2018-04-02T04:19:32.508Z,90.77
2018-04-02T04:20:32.534Z,90.58
2018-04-02T04:21:32.569Z,90.96
2018-04-02T04:22:32.569Z,90.86
2018-04-02T04:23:32.627Z,90.86
2018-04-02T04:24:32.603Z,90.86
2018-04-02T04:25:32.623Z,90.96
2018-04-02T04:26:32.642Z,90.77
2018-04-02T04:27:32.669Z,90.96
2018-04-02T04:28:32.688Z,90.86
2018-04-02T04:29:32.695Z,90.48
2018-04-02T04:30:32.715Z,90.77
2018-04-02T04:31:32.744Z,90.96
2018-04-02T04:32:32.759Z,90.86
2018-04-02T04:33:32.777Z,90.67
2018-04-02T04:34:32.795Z,90.77
2018-04-02T04:35:32.815Z,90.86
2018-04-02T04:36:32.843Z,91.43
2018-04-02T04:37:32.854Z,91.53
2018-04-02T04:38:32.874Z,90.86
2018-04-02T04:39:32.891Z,90.86
2018-04-02T04:40:32.910Z,90.77
2018-04-02T04:41:32.929Z,90.86
2018-04-02T04:42:32.949Z,90.58
2018-04-02T04:43:32.971Z,91.24
2018-04-02T04:44:32.989Z,90.77
2018-04-02T04:45:33.009Z,90.67
2018-04-02T04:46:33.025Z,90.77
2018-04-02T04:47:33.046Z,90.67
2018-04-02T04:48:33.066Z,91.05
2018-04-02T04:49:33.086Z,91.15
2018-04-02T04:50:33.107Z,91.43
2018-04-02T04:51:33.167Z,91.53
2018-04-02T04:52:33.143Z,91.43
2018-04-02T04:53:33.172Z,91.15
2018-04-02T04:54:33.184Z,91.34
2018-04-02T04:55:33.203Z,91.62
2018-04-02T04:56:33.218Z,91.05
2018-04-02T04:57:33.250Z,91.15
2018-04-02T04:58:33.264Z,91.34
2018-04-02T04:59:33.284Z,91.43
2018-04-02T05:00:33.297Z,90.86
2018-04-02T05:01:33.314Z,90.96
2018-04-02T05:02:33.341Z,91.43
2018-04-02T05:03:33.359Z,91.24
2018-04-02T05:04:33.371Z,90.86
2018-04-02T05:05:33.398Z,91.34
2018-04-02T05:06:33.411Z,91.05
2018-04-02T05:07:33.432Z,91.72
2018-04-02T05:08:33.452Z,91.72
2018-04-02T05:09:33.467Z,91.72
2018-04-02T05:10:33.494Z,91.72
2018-04-02T05:11:33.507Z,91.24
2018-04-02T05:12:33.528Z,90.77
2018-04-02T05:13:33.552Z,90.58
2018-04-02T05:14:33.566Z,91.24
2018-04-02T05:15:33.592Z,91.24
2018-04-02T05:16:33.608Z,91.34
2018-04-02T05:17:33.670Z,90.96
2018-04-02T05:18:33.644Z,91.34
2018-04-02T05:19:33.666Z,91.05
2018-04-02T05:20:33.687Z,91.24
2018-04-02T05:21:33.705Z,90.96
2018-04-02T05:22:33.720Z,90.77
2018-04-02T05:23:33.739Z,91.15
2018-04-02T05:24:33.766Z,91.34
2018-04-02T05:25:33.785Z,91.19
2018-04-02T05:26:33.796Z,91.24
2018-04-02T05:27:33.822Z,91.19
2018-04-02T05:28:33.834Z,91.05
2018-04-02T05:29:33.859Z,91.24
2018-04-02T05:30:33.878Z,91.62
2018-04-02T05:31:33.892Z,91.91
2018-04-02T05:32:33.919Z,91.05
2018-04-02T05:33:33.933Z,91.48
2018-04-02T05:34:34.089Z,91.15
2018-04-02T05:35:33.971Z,91.24
2018-04-02T05:36:33.994Z,91.34
2018-04-02T05:37:34.016Z,91.43
2018-04-02T05:38:34.031Z,91.62
2018-04-02T05:39:34.049Z,91.72
2018-04-02T05:40:34.081Z,91.72
2018-04-02T05:41:34.090Z,91.91
2018-04-02T05:42:34.106Z,91.91
2018-04-02T05:43:34.129Z,92.00
2018-04-02T05:44:34.153Z,91.91
2018-04-02T05:45:34.171Z,91.91
2018-04-02T05:46:34.189Z,91.62
2018-04-02T05:47:34.905Z,91.81
2018-04-02T05:48:34.228Z,92.00
2018-04-02T05:49:34.322Z,91.81
2018-04-02T05:50:34.267Z,91.72
2018-04-02T05:51:34.286Z,91.81
2018-04-02T05:52:34.311Z,92.10
2018-04-02T05:53:34.325Z,91.81
2018-04-02T05:54:34.344Z,91.81
2018-04-02T05:55:34.366Z,91.72
2018-04-02T05:56:34.380Z,91.43
2018-04-02T05:57:34.405Z,91.81
2018-04-02T05:58:34.418Z,91.53
2018-04-02T05:59:34.438Z,91.91
2018-04-02T06:00:34.480Z,91.91
2018-04-02T06:01:34.490Z,91.91
2018-04-02T06:02:34.500Z,92.00
2018-04-02T06:03:34.515Z,91.62
2018-04-02T06:04:34.542Z,91.72
2018-04-02T06:05:34.555Z,92.00
2018-04-02T06:06:34.583Z,91.91
2018-04-02T06:07:34.597Z,91.10
2018-04-02T06:08:34.624Z,91.00
2018-04-02T06:09:34.641Z,91.10
2018-04-02T06:10:34.684Z,90.81
2018-04-02T06:11:34.677Z,91.19
2018-04-02T06:12:34.693Z,91.19
2018-04-02T06:13:35.433Z,91.48
2018-04-02T06:14:34.733Z,91.10
2018-04-02T06:15:34.779Z,91.00
2018-04-02T06:16:34.787Z,90.81
2018-04-02T06:17:34.815Z,91.10
2018-04-02T06:18:34.813Z,90.63
2018-04-02T06:19:34.835Z,90.63
2018-04-02T06:20:34.854Z,91.10
2018-04-02T06:21:34.872Z,91.00
2018-04-02T06:22:34.894Z,91.00
2018-04-02T06:23:34.910Z,90.44
2018-04-02T06:24:34.931Z,90.15
2018-04-02T06:25:34.953Z,90.34
2018-04-02T06:26:34.965Z,89.58
2018-04-02T06:27:34.988Z,90.15
2018-04-02T06:28:35.022Z,89.68
2018-04-02T06:29:35.024Z,90.25
2018-04-02T06:30:35.050Z,90.34
2018-04-02T06:31:35.119Z,89.96
2018-04-02T06:32:35.088Z,90.34
2018-04-02T06:33:35.109Z,90.06
2018-04-02T06:34:35.120Z,89.96
2018-04-02T06:35:35.141Z,91.00
2018-04-02T06:36:35.165Z,90.81
2018-04-02T06:37:35.182Z,90.06
2018-04-02T06:38:35.203Z,89.96
2018-04-02T06:39:35.218Z,89.77
2018-04-02T06:40:35.250Z,89.87
2018-04-02T06:41:35.262Z,89.96
2018-04-02T06:42:35.284Z,90.44
2018-04-02T06:43:35.318Z,89.87
2018-04-02T06:44:35.321Z,89.39
2018-04-02T06:45:35.343Z,89.20
2018-04-02T06:46:35.369Z,89.39
2018-04-02T06:47:35.382Z,89.30
2018-04-02T06:48:35.402Z,89.68
2018-04-02T06:49:35.419Z,89.58
2018-04-02T06:50:35.440Z,89.30
2018-04-02T06:51:35.461Z,89.20
2018-04-02T06:52:35.482Z,88.64
2018-04-02T06:53:35.497Z,88.82
2018-04-02T06:54:35.522Z,88.35
2018-04-02T06:55:35.542Z,88.45
2018-04-02T06:56:35.558Z,88.45
2018-04-02T06:57:35.580Z,88.82
2018-04-02T06:58:35.619Z,88.64
2018-04-02T06:59:35.616Z,88.26
2018-04-02T07:00:35.639Z,88.73
2018-04-02T07:01:35.658Z,88.54
2018-04-02T07:02:35.685Z,88.64
2018-04-02T07:03:35.703Z,88.17
2018-04-02T07:04:35.773Z,88.26
2018-04-02T07:05:35.737Z,88.07
2018-04-02T07:06:35.761Z,88.45
2018-04-02T07:07:35.780Z,88.35
2018-04-02T07:08:35.796Z,88.45
2018-04-02T07:09:35.819Z,88.35
2018-04-02T07:10:35.837Z,88.30
2018-04-02T07:11:35.858Z,87.69
2018-04-02T07:12:35.881Z,87.50
2018-04-02T07:13:35.901Z,87.40
2018-04-02T07:14:35.929Z,87.88
2018-04-02T07:15:35.934Z,87.78
2018-04-02T07:16:35.970Z,87.64
2018-04-02T07:17:35.979Z,87.54
2018-04-02T07:18:36.035Z,87.92
2018-04-02T07:19:36.022Z,87.16
2018-04-02T07:20:36.035Z,86.98
2018-04-02T07:21:36.064Z,87.07
2018-04-02T07:22:36.079Z,87.16
2018-04-02T07:23:36.111Z,87.35
2018-04-02T07:24:36.120Z,86.98
2018-04-02T07:25:36.137Z,86.98
2018-04-02T07:26:36.167Z,86.60
2018-04-02T07:27:36.182Z,86.79
2018-04-02T07:28:36.208Z,86.69
2018-04-02T07:29:36.226Z,86.50
2018-04-02T07:30:36.243Z,86.60
2018-04-02T07:31:36.310Z,86.93
2018-04-02T07:32:36.283Z,87.07
2018-04-02T07:33:36.316Z,87.07
2018-04-02T07:34:36.329Z,86.79
2018-04-02T07:35:36.361Z,86.88
2018-04-02T07:36:36.368Z,86.88
2018-04-02T07:37:36.393Z,86.69
2018-04-02T07:38:36.399Z,86.60
2018-04-02T07:39:36.424Z,86.50
2018-04-02T07:40:37.405Z,86.31
2018-04-02T07:41:36.467Z,86.12
2018-04-02T07:42:36.493Z,86.50
2018-04-02T07:43:36.508Z,86.31
2018-04-02T07:44:36.528Z,86.50
2018-04-02T07:45:36.544Z,86.69
2018-04-02T07:46:36.573Z,86.22
2018-04-02T07:47:36.587Z,86.41
2018-04-02T07:48:36.610Z,86.41
2018-04-02T07:49:36.626Z,86.12
2018-04-02T07:50:36.652Z,85.65
2018-04-02T07:51:36.670Z,85.46
2018-04-02T07:52:36.686Z,85.17
2018-04-02T07:53:36.714Z,85.17
2018-04-02T07:54:36.733Z,85.41
2018-04-02T07:55:36.797Z,85.13
2018-04-02T07:56:36.780Z,84.94
2018-04-02T07:57:36.792Z,84.65
2018-04-02T07:58:36.810Z,84.17
2018-04-02T07:59:36.826Z,84.17
2018-04-02T08:00:36.859Z,83.61
2018-04-02T08:01:36.881Z,83.70
2018-04-02T08:02:36.902Z,83.42
2018-04-02T08:03:36.924Z,83.32
2018-04-02T08:04:36.930Z,83.13
2018-04-02T08:05:36.958Z,82.09
2018-04-02T08:06:36.986Z,82.56
2018-04-02T08:07:36.996Z,82.37
2018-04-02T08:08:37.064Z,82.56
2018-04-02T08:09:37.037Z,82.66
2018-04-02T08:10:37.061Z,82.56
2018-04-02T08:11:37.081Z,82.47
2018-04-02T08:12:37.101Z,82.42
2018-04-02T08:13:37.126Z,82.04
2018-04-02T08:14:37.146Z,81.37
2018-04-02T08:15:37.165Z,81.37
2018-04-02T08:16:37.207Z,81.56
2018-04-02T08:17:37.210Z,80.80
2018-04-02T08:18:37.239Z,81.37
2018-04-02T08:19:37.251Z,80.62
2018-04-02T08:20:37.289Z,79.66
2018-04-02T08:21:37.297Z,79.38
2018-04-02T08:22:37.315Z,79.19
2018-04-02T08:23:37.359Z,79.61
2018-04-02T08:24:37.358Z,79.38
2018-04-02T08:25:37.393Z,79.47
2018-04-02T08:26:37.405Z,79.38
2018-04-02T08:27:37.434Z,79.42
2018-04-02T08:28:37.448Z,79.14
2018-04-02T08:29:37.475Z,79.04
2018-04-02T08:30:37.498Z,78.09
2018-04-02T08:31:37.513Z,77.90
2018-04-02T08:32:37.559Z,77.71
2018-04-02T08:33:37.561Z,77.43
2018-04-02T08:34:37.583Z,76.86
2018-04-02T08:35:37.608Z,76.71
2018-04-02T08:36:37.648Z,75.79
2018-04-02T08:37:37.652Z,74.71
2018-04-02T08:38:37.688Z,75.00
2018-04-02T08:39:37.697Z,75.34
2018-04-02T08:40:37.721Z,75.67
2018-04-02T08:41:37.749Z,75.28
2018-04-02T08:42:37.770Z,74.62
2018-04-02T08:43:37.795Z,74.52
2018-04-02T08:44:37.818Z,75.38
2018-04-02T08:45:37.837Z,74.52
2018-04-02T08:46:37.882Z,73.61
2018-04-02T08:47:37.881Z,73.67
2018-04-02T08:48:37.906Z,73.29
2018-04-02T08:49:37.936Z,73.67
2018-04-02T08:50:37.952Z,73.38
2018-04-02T08:51:37.982Z,72.75
2018-04-02T08:52:38.007Z,72.09
2018-04-02T08:53:38.032Z,71.81
2018-04-02T08:54:38.075Z,71.81
2018-04-02T08:55:38.081Z,71.52
2018-04-02T08:56:38.111Z,71.43
2018-04-02T08:57:38.131Z,71.81
2018-04-02T08:58:38.148Z,71.62
2018-04-02T08:59:38.171Z,70.95
2018-04-02T09:00:38.252Z,71.08
2018-04-02T09:01:38.227Z,70.70
2018-04-02T09:02:38.247Z,69.75
2018-04-02T09:03:38.272Z,69.56
2018-04-02T09:04:38.293Z,70.32
2018-04-02T09:05:38.913Z,70.29
2018-04-02T09:06:38.353Z,71.14
2018-04-02T09:07:38.383Z,71.04
2018-04-02T09:08:38.399Z,71.43
2018-04-02T09:09:38.417Z,70.86
2018-04-02T09:10:38.452Z,71.43
2018-04-02T09:11:38.478Z,69.94
2018-04-02T09:12:38.489Z,69.37
2018-04-02T09:13:38.512Z,68.61
2018-04-02T09:14:38.544Z,68.80
2018-04-02T09:15:38.577Z,68.80
2018-04-02T09:16:38.607Z,68.61
2018-04-02T09:17:38.616Z,68.13
2018-04-02T09:18:38.642Z,68.13
2018-04-02T09:19:38.672Z,68.33
2018-04-02T09:20:38.691Z,68.42
2018-04-02T09:21:38.718Z,68.71
2018-04-02T09:22:38.746Z,68.36
2018-04-02T09:23:38.766Z,67.50
2018-04-02T09:24:38.789Z,66.17
2018-04-02T09:25:38.814Z,66.27
2018-04-02T09:26:38.837Z,66.17
2018-04-02T09:27:38.869Z,65.99
2018-04-02T09:28:38.891Z,65.83
2018-04-02T09:29:38.917Z,64.97
2018-04-02T09:30:38.945Z,64.27
2018-04-02T09:31:38.964Z,63.76
2018-04-02T09:32:39.016Z,63.20
2018-04-02T09:33:39.019Z,62.43
2018-04-02T09:34:39.046Z,62.05
2018-04-02T09:35:39.067Z,61.67
2018-04-02T09:36:39.103Z,61.58
2018-04-02T09:37:39.123Z,62.24
2018-04-02T09:38:39.140Z,61.48
2018-04-02T09:39:39.174Z,61.61
2018-04-02T09:40:39.204Z,60.66
2018-04-02T09:41:39.232Z,59.96
2018-04-02T09:42:39.244Z,59.96
2018-04-02T09:43:39.282Z,60.08
2018-04-02T09:44:39.301Z,58.50
2018-04-02T09:45:39.333Z,57.19
2018-04-02T09:46:39.350Z,56.49
2018-04-02T09:47:39.442Z,57.54
2018-04-02T09:48:39.404Z,56.04
2018-04-02T09:49:39.442Z,56.02
2018-04-02T09:50:39.461Z,56.14
2018-04-02T09:51:39.487Z,56.02
2018-04-02T09:52:39.515Z,55.54
2018-04-02T09:53:39.539Z,53.35
2018-04-02T09:54:39.569Z,51.95
2018-04-02T09:55:39.602Z,50.45
2018-04-02T09:56:39.625Z,50.73
2018-04-02T09:57:39.649Z,51.02
2018-04-02T09:58:39.682Z,49.64
2018-04-02T09:59:39.734Z,49.16
2018-04-02T10:00:39.735Z,49.68
2018-04-02T10:01:39.769Z,49.90
2018-04-02T10:02:39.802Z,48.30
2018-04-02T10:03:39.829Z,49.13
2018-04-02T10:04:39.979Z,49.62
2018-04-02T10:05:39.888Z,49.42
2018-04-02T10:06:39.908Z,47.03
2018-04-02T10:07:39.939Z,45.92
2018-04-02T10:08:39.979Z,43.65
2018-04-02T10:09:40.076Z,42.86
2018-04-02T10:10:40.026Z,43.46
2018-04-02T10:11:40.076Z,42.90
2018-04-02T10:12:40.089Z,42.50
2018-04-02T10:13:40.126Z,42.16
2018-04-02T10:14:40.149Z,41.11
2018-04-02T10:15:40.195Z,40.67
2018-04-02T10:16:40.209Z,39.08
2018-04-02T10:17:40.238Z,38.98
2018-04-02T10:18:40.940Z,40.89
2018-04-02T10:19:40.297Z,41.47
2018-04-02T10:20:40.404Z,41.18
2018-04-02T10:21:40.369Z,40.89
2018-04-02T10:22:40.513Z,40.70
2018-04-02T10:23:40.420Z,39.47
2018-04-02T10:24:40.462Z,39.20
2018-04-02T10:25:40.505Z,38.07
2018-04-02T10:26:40.523Z,37.57
2018-04-02T10:27:40.548Z,37.48
2018-04-02T10:28:40.586Z,38.60
2018-04-02T10:29:40.701Z,38.34
2018-04-02T10:30:40.648Z,37.40
2018-04-02T10:31:40.677Z,36.71
2018-04-02T10:32:40.733Z,37.30
2018-04-02T10:33:40.740Z,37.02
2018-04-02T10:34:40.780Z,36.94
2018-04-02T10:35:40.808Z,35.63
2018-04-02T10:36:40.839Z,35.33
2018-04-02T10:37:40.875Z,35.61
2018-04-02T10:38:40.909Z,35.49
2018-04-02T10:39:40.943Z,35.81
2018-04-02T10:40:40.990Z,34.85
2018-04-02T10:41:41.008Z,34.18
2018-04-02T10:42:41.044Z,35.49
2018-04-02T10:43:41.074Z,37.40
2018-04-02T10:44:41.115Z,36.61
2018-04-02T10:45:41.141Z,37.65
2018-04-02T10:46:41.177Z,37.78
2018-04-02T10:47:41.209Z,37.76
2018-04-02T10:48:41.268Z,37.23
2018-04-02T10:49:41.323Z,35.94
2018-04-02T10:50:41.319Z,34.34
2018-04-02T10:51:41.348Z,31.40
2018-04-02T10:52:41.385Z,30.92
2018-04-02T10:53:41.418Z,30.07
2018-04-02T10:54:41.457Z,29.82
2018-04-02T10:55:41.485Z,31.99
2018-04-02T10:56:41.515Z,33.58
2018-04-02T10:57:41.550Z,31.41
2018-04-02T10:58:41.587Z,29.76
2018-04-02T10:59:41.642Z,28.99
2018-04-02T11:00:41.649Z,29.74
2018-04-02T11:01:41.682Z,31.71
2018-04-02T11:02:41.715Z,35.16
2018-04-02T11:03:41.745Z,37.68
2018-04-02T11:04:41.788Z,37.36
2018-04-02T11:05:41.843Z,39.27
2018-04-02T11:06:41.843Z,37.95
2018-04-02T11:07:41.948Z,35.69
2018-04-02T11:08:41.914Z,33.72
2018-04-02T11:09:41.949Z,33.94
2018-04-02T11:10:41.981Z,35.12
2018-04-02T11:11:42.010Z,34.29
2018-04-02T11:12:42.055Z,32.44
2018-04-02T11:13:42.076Z,31.61
2018-04-02T11:14:42.115Z,32.55
2018-04-02T11:15:42.146Z,32.84
2018-04-02T11:16:42.190Z,33.78
2018-04-02T11:17:42.221Z,34.14
2018-04-02T11:18:42.278Z,34.13
2018-04-02T11:19:42.270Z,35.20
2018-04-02T11:20:42.326Z,34.42
2018-04-02T11:21:42.341Z,33.76
2018-04-02T11:22:42.373Z,33.19
2018-04-02T11:23:42.433Z,33.03
2018-04-02T11:24:42.466Z,32.20
2018-04-02T11:25:42.968Z,30.54
2018-04-02T11:26:42.505Z,27.83
2018-04-02T11:27:42.563Z,29.05
2018-04-02T11:28:42.573Z,30.08
2018-04-02T11:29:42.608Z,30.54
2018-04-02T11:30:42.637Z,31.02
2018-04-02T11:31:42.670Z,31.59
2018-04-02T11:32:42.707Z,31.87
2018-04-02T11:33:42.744Z,33.48
2018-04-02T11:34:43.482Z,33.40
2018-04-02T11:35:42.808Z,32.82
2018-04-02T11:36:42.842Z,33.01
2018-04-02T11:37:42.875Z,32.65
2018-04-02T11:38:42.910Z,31.51
2018-04-02T11:39:42.946Z,31.04
2018-04-02T11:40:42.981Z,30.94
2018-04-02T11:41:43.013Z,30.58
2018-04-02T11:42:43.043Z,30.20
2018-04-02T11:43:43.122Z,29.27
2018-04-02T11:44:43.119Z,30.19
2018-04-02T11:45:43.163Z,31.79
2018-04-02T11:46:43.177Z,32.75
2018-04-02T11:47:43.215Z,32.84
2018-04-02T11:48:43.251Z,33.28
2018-04-02T11:49:43.297Z,33.32
2018-04-02T11:50:43.319Z,33.57
2018-04-02T11:51:43.358Z,33.65
2018-04-02T11:52:43.390Z,35.16
2018-04-02T11:53:43.415Z,35.74
2018-04-02T11:54:43.467Z,35.49
2018-04-02T11:55:43.482Z,34.28
2018-04-02T11:56:43.520Z,34.13
2018-04-02T11:57:43.549Z,35.28
2018-04-02T11:58:43.587Z,35.28
2018-04-02T11:59:43.614Z,34.53
2018-04-02T12:00:43.650Z,34.34
2018-04-02T12:01:43.689Z,34.34
2018-04-02T12:02:43.723Z,35.57
2018-04-02T12:03:43.752Z,36.41
2018-04-02T12:04:43.783Z,36.96
2018-04-02T12:05:43.821Z,38.28
2018-04-02T12:06:43.854Z,39.90
2018-04-02T12:07:43.879Z,40.26
2018-04-02T12:08:43.922Z,40.64
2018-04-02T12:09:43.943Z,40.34
2018-04-02T12:10:43.977Z,41.10
2018-04-02T12:11:44.008Z,41.48
2018-04-02T12:12:44.045Z,42.05
2018-04-02T12:13:44.068Z,42.53
2018-04-02T12:14:44.149Z,42.91
2018-04-02T12:15:44.130Z,43.01
2018-04-02T12:16:44.164Z,43.27
2018-04-02T12:17:44.190Z,42.99
2018-04-02T12:18:44.225Z,43.46
2018-04-02T12:19:44.251Z,43.27
2018-04-02T12:20:44.280Z,43.56
2018-04-02T12:21:44.317Z,43.94
2018-04-02T12:22:44.340Z,44.04
2018-04-02T12:23:44.375Z,44.13
2018-04-02T12:24:44.402Z,43.94
2018-04-02T12:25:44.438Z,44.60
2018-04-02T12:26:44.457Z,44.99
2018-04-02T12:27:44.500Z,44.70
2018-04-02T12:28:44.536Z,44.60
2018-04-02T12:29:44.562Z,44.51
2018-04-02T12:30:44.573Z,44.60
2018-04-02T12:31:44.602Z,44.42
2018-04-02T12:32:44.759Z,44.99
2018-04-02T12:33:44.659Z,45.28
2018-04-02T12:34:44.688Z,44.89
2018-04-02T12:35:44.713Z,45.08
2018-04-02T12:36:44.751Z,44.89
2018-04-02T12:37:44.767Z,44.99
2018-04-02T12:38:44.804Z,44.73
2018-04-02T12:39:44.823Z,44.60
2018-04-02T12:40:44.851Z,44.89
2018-04-02T12:41:44.889Z,45.08
2018-04-02T12:42:44.920Z,44.99
2018-04-02T12:43:44.945Z,44.80
2018-04-02T12:44:44.955Z,44.80
2018-04-02T12:45:44.983Z,45.08
2018-04-02T12:46:45.019Z,44.99
2018-04-02T12:47:45.039Z,45.08
2018-04-02T12:48:45.063Z,45.08
2018-04-02T12:49:45.097Z,45.01
2018-04-02T12:50:45.123Z,45.20
2018-04-02T12:51:45.151Z,44.44
2018-04-02T12:52:45.173Z,44.34